Time;durP1;ratioP1;P1;durP2;ratioP2;P2;SDS_P1;SDS_P2;PMS_P1;PMS_P2;Temp;Humidity;BMP_temperature;BMP_pressure;BME280_temperature;BME280_humidity;BME280_pressure;Samples;Min_cycle;Max_cycle;Signal;HPM_P1;HPM_P2
2023/06/23 00:01:45;;;;;;;26.40;14.25;;;;;;;16.04;93.00;102142.53;6112239;19;20455;-72
2023/06/23 00:03:56;;;;;;;27.75;14.27;;;;;;;16.00;93.16;102147.09;6111276;19;20025;-71
2023/06/23 00:06:03;;;;;;;25.48;14.18;;;;;;;16.00;92.82;102152.38;6112083;19;20071;-71
2023/06/23 00:08:08;;;;;;;26.45;14.88;;;;;;;15.99;92.87;102140.94;6111888;19;20399;-71
2023/06/23 00:10:14;;;;;;;29.58;15.25;;;;;;;15.96;92.78;102141.06;6110415;19;20015;-71
2023/06/23 00:12:19;;;;;;;27.92;15.02;;;;;;;15.92;93.20;102139.44;6111025;19;20027;-70
2023/06/23 00:14:24;;;;;;;27.98;15.77;;;;;;;15.89;93.05;102149.34;6110989;19;20046;-71
2023/06/23 00:16:30;;;;;;;24.42;15.65;;;;;;;15.85;93.41;102138.00;6110365;19;20018;-70
2023/06/23 00:18:39;;;;;;;32.67;19.00;;;;;;;15.89;93.71;102144.88;6110828;19;20006;-71
2023/06/23 00:20:47;;;;;;;34.90;20.13;;;;;;;15.92;94.24;102135.94;6110765;19;20522;-71
2023/06/23 00:22:51;;;;;;;39.00;22.08;;;;;;;15.91;94.98;102124.47;6110442;19;20018;-71
2023/06/23 00:24:57;;;;;;;36.47;21.98;;;;;;;15.95;95.14;102118.09;6111207;19;20009;-70
2023/06/23 00:27:03;;;;;;;47.40;24.75;;;;;;;15.94;95.99;102121.69;6109470;19;20435;-71
2023/06/23 00:29:09;;;;;;;43.97;24.98;;;;;;;15.89;96.70;102115.72;6111083;19;20031;-70
2023/06/23 00:31:14;;;;;;;45.92;25.08;;;;;;;15.92;96.66;102123.53;6111707;19;20042;-70
2023/06/23 00:33:19;;;;;;;50.72;26.58;;;;;;;15.94;97.45;102113.75;6112478;19;20011;-70
2023/06/23 00:35:24;;;;;;;52.42;27.88;;;;;;;15.95;98.19;102126.06;6111803;19;20350;-70
2023/06/23 00:37:37;;;;;;;56.88;31.05;;;;;;;15.97;98.35;102137.47;6108858;19;20394;-71
2023/06/23 00:39:43;;;;;;;66.97;30.52;;;;;;;16.00;99.06;102141.78;6110860;19;20133;-72
2023/06/23 00:41:48;;;;;;;64.90;33.80;;;;;;;15.98;98.93;102136.56;6110303;19;20059;-70
2023/06/23 00:43:53;;;;;;;70.72;35.30;;;;;;;16.06;99.10;102148.59;6110568;19;20463;-70
2023/06/23 00:45:58;;;;;;;74.07;36.17;;;;;;;16.05;99.68;102149.56;6111261;19;20078;-70
2023/06/23 00:48:05;;;;;;;70.50;33.95;;;;;;;16.06;99.34;102144.19;6111608;19;20062;-70
2023/06/23 00:50:15;;;;;;;70.93;34.25;;;;;;;16.04;99.33;102148.69;6109780;19;20013;-71
2023/06/23 00:52:20;;;;;;;80.10;36.80;;;;;;;16.01;100.00;102149.69;6109569;19;20059;-71
2023/06/23 00:54:28;;;;;;;74.68;37.00;;;;;;;16.03;100.00;102149.59;6109788;19;20011;-71
2023/06/23 00:56:34;;;;;;;87.53;39.63;;;;;;;16.04;100.00;102147.84;6109968;19;20011;-72
2023/06/23 00:58:40;;;;;;;78.80;37.88;;;;;;;16.00;100.00;102150.59;6110767;19;20367;-72
2023/06/23 01:00:48;;;;;;;79.00;39.97;;;;;;;16.04;100.00;102156.66;6109632;19;20134;-71
2023/06/23 01:02:54;;;;;;;81.72;38.42;;;;;;;16.07;100.00;102161.81;6111011;19;20037;-70
2023/06/23 01:05:00;;;;;;;74.68;38.88;;;;;;;16.07;100.00;102159.16;6111668;19;20367;-72
2023/06/23 01:07:21;;;;;;;79.13;36.22;;;;;;;16.06;100.00;102173.38;6110563;19;20010;-72
2023/06/23 01:09:38;;;;;;;78.45;37.25;;;;;;;16.05;100.00;102168.97;6108889;19;20483;-70
2023/06/23 01:11:57;;;;;;;77.70;39.30;;;;;;;16.07;100.00;102180.38;6107976;19;20023;-70
2023/06/23 01:14:09;;;;;;;80.70;36.30;;;;;;;16.11;100.00;102181.94;6108834;19;20025;-70
2023/06/23 01:16:20;;;;;;;72.20;35.80;;;;;;;16.10;100.00;102180.25;6108622;19;20015;-71
2023/06/23 01:18:34;;;;;;;75.38;36.00;;;;;;;16.06;100.00;102183.97;6110254;19;20015;-70
2023/06/23 01:20:42;;;;;;;78.32;35.35;;;;;;;16.03;100.00;102186.72;6109439;19;20014;-71
2023/06/23 01:23:11;;;;;;;68.22;33.20;;;;;;;16.02;100.00;102182.34;6109674;19;20019;-71
2023/06/23 01:25:29;;;;;;;70.20;34.25;;;;;;;16.00;100.00;102185.06;6109392;19;20046;-71
2023/06/23 01:27:59;;;;;;;71.47;33.40;;;;;;;15.97;100.00;102185.19;6105400;19;20006;-71
2023/06/23 01:30:10;;;;;;;71.32;34.80;;;;;;;15.95;100.00;102181.72;6116015;19;20022;-73
2023/06/23 01:32:20;;;;;;;65.78;32.13;;;;;;;15.97;100.00;102181.69;6112511;19;20043;-71
2023/06/23 01:34:34;;;;;;;69.85;34.03;;;;;;;15.95;100.00;102191.47;6115830;19;20077;-70
2023/06/23 01:36:44;;;;;;;67.45;32.67;;;;;;;15.91;100.00;102198.72;6114122;19;20451;-71
2023/06/23 01:38:53;;;;;;;76.35;34.53;;;;;;;15.91;100.00;102204.00;6113713;19;20015;-72
2023/06/23 01:41:01;;;;;;;69.03;31.30;;;;;;;15.88;100.00;102204.16;6115113;19;20063;-71
2023/06/23 01:43:09;;;;;;;70.75;32.50;;;;;;;15.87;100.00;102204.19;6113836;19;20175;-70
2023/06/23 01:45:19;;;;;;;64.97;31.52;;;;;;;15.84;100.00;102206.97;6114568;19;20002;-71
2023/06/23 01:47:30;;;;;;;71.95;31.75;;;;;;;15.79;100.00;102210.66;6114891;19;20094;-71
2023/06/23 01:49:38;;;;;;;60.83;29.65;;;;;;;15.80;100.00;102203.59;6107531;19;20020;-70
2023/06/23 01:51:49;;;;;;;71.60;32.53;;;;;;;15.83;100.00;102207.91;6114759;19;20055;-72
2023/06/23 01:53:55;;;;;;;69.03;32.28;;;;;;;15.80;100.00;102215.06;6112624;19;20019;-72
2023/06/23 01:56:04;;;;;;;67.15;34.05;;;;;;;15.79;100.00;102208.00;6112444;19;20503;-75
2023/06/23 01:58:11;;;;;;;68.53;32.53;;;;;;;15.80;100.00;102208.91;6113883;19;20010;-74
2023/06/23 02:00:22;;;;;;;74.50;36.70;;;;;;;15.78;100.00;102219.56;6115012;19;20059;-76
2023/06/23 02:02:30;;;;;;;61.08;32.20;;;;;;;15.82;100.00;102217.63;6114126;19;20018;-74
2023/06/23 02:04:38;;;;;;;81.97;35.42;;;;;;;15.83;100.00;102213.22;6116606;19;20444;-74
2023/06/23 02:06:45;;;;;;;66.97;31.70;;;;;;;15.86;100.00;102226.34;6116022;19;20010;-74
2023/06/23 02:08:51;;;;;;;71.38;33.08;;;;;;;15.82;100.00;102222.06;6112465;19;20391;-74
2023/06/23 02:10:58;;;;;;;70.38;33.88;;;;;;;15.80;100.00;102236.25;6114861;19;20021;-74
2023/06/23 02:13:04;;;;;;;72.10;35.58;;;;;;;15.78;100.00;102234.59;6113912;19;20082;-75
2023/06/23 02:15:11;;;;;;;71.47;33.60;;;;;;;15.75;100.00;102243.53;6112750;19;20010;-75
2023/06/23 02:17:21;;;;;;;73.32;32.55;;;;;;;15.75;100.00;102240.88;6115382;19;20043;-73
2023/06/23 02:19:32;;;;;;;75.07;34.15;;;;;;;15.69;100.00;102248.19;6114039;19;20014;-75
2023/06/23 02:21:38;;;;;;;73.10;36.95;;;;;;;15.69;100.00;102245.56;6112155;19;20479;-74
2023/06/23 02:23:44;;;;;;;67.82;32.33;;;;;;;15.66;100.00;102250.94;6114175;19;20011;-75
2023/06/23 02:25:51;;;;;;;66.22;31.73;;;;;;;15.61;100.00;102253.75;6113440;19;20495;-74
2023/06/23 02:27:58;;;;;;;66.38;29.67;;;;;;;15.60;100.00;102257.34;6112870;19;20017;-74
2023/06/23 02:30:04;;;;;;;71.15;32.92;;;;;;;15.59;100.00;102259.16;6117033;19;20010;-75
2023/06/23 02:32:17;;;;;;;62.30;30.92;;;;;;;15.54;100.00;102266.41;6115088;19;20107;-74
2023/06/23 02:34:24;;;;;;;62.15;29.50;;;;;;;15.47;100.00;102272.00;6114995;19;20448;-76
2023/06/23 02:36:33;;;;;;;61.80;30.27;;;;;;;15.41;100.00;102275.75;6116088;19;20017;-75
2023/06/23 02:38:40;;;;;;;62.70;30.95;;;;;;;15.35;100.00;102271.53;6114936;19;20006;-74
2023/06/23 02:40:46;;;;;;;71.22;32.08;;;;;;;15.30;100.00;102276.16;6111540;19;20361;-75
2023/06/23 02:43:02;;;;;;;62.40;32.45;;;;;;;15.30;100.00;102273.50;6115114;19;20027;-74
2023/06/23 02:45:15;;;;;;;62.72;30.35;;;;;;;15.26;100.00;102269.22;6113920;19;20482;-74
2023/06/23 02:47:22;;;;;;;73.30;34.03;;;;;;;15.22;100.00;102264.97;6113086;19;20049;-75
2023/06/23 02:49:32;;;;;;;62.58;31.10;;;;;;;15.19;100.00;102265.06;6105489;19;20015;-75
2023/06/23 02:51:40;;;;;;;68.65;31.08;;;;;;;15.18;100.00;102258.06;6112395;19;20018;-75
2023/06/23 02:53:49;;;;;;;63.55;30.17;;;;;;;15.15;100.00;102258.19;6112907;19;20086;-73
2023/06/23 02:56:06;;;;;;;69.70;33.33;;;;;;;15.13;100.00;102255.56;6114467;19;19999;-73
2023/06/23 02:58:16;;;;;;;68.13;33.20;;;;;;;15.10;100.00;102255.69;6115306;19;20002;-74
2023/06/23 03:00:24;;;;;;;69.30;34.38;;;;;;;15.09;100.00;102251.34;6115097;19;20016;-74
2023/06/23 03:02:32;;;;;;;85.18;38.45;;;;;;;15.10;100.00;102255.69;6114482;19;20014;-74
2023/06/23 03:04:44;;;;;;;67.32;33.38;;;;;;;15.09;100.00;102261.91;6114585;19;20014;-75
2023/06/23 03:06:48;;;;;;;69.68;34.38;;;;;;;15.06;100.00;102264.69;6113963;19;20336;-73
2023/06/23 03:08:54;;;;;;;71.82;35.40;;;;;;;15.04;100.00;102269.16;6113541;19;20010;-74
2023/06/23 03:10:59;;;;;;;65.53;32.22;;;;;;;15.04;100.00;102268.31;6112777;19;20011;-75
2023/06/23 03:13:04;;;;;;;82.93;38.38;;;;;;;15.08;100.00;102269.91;6114613;19;20010;-74
2023/06/23 03:15:13;;;;;;;78.30;32.30;;;;;;;15.06;100.00;102275.28;6095984;19;20043;-74
2023/06/23 03:17:24;;;;;;;62.05;30.17;;;;;;;15.04;100.00;102270.97;6113123;19;20007;-73
2023/06/23 03:19:36;;;;;;;82.60;34.28;;;;;;;15.07;100.00;102277.00;6108238;19;20475;-75
2023/06/23 03:21:50;;;;;;;67.07;33.13;;;;;;;15.08;100.00;102283.16;6114423;19;20588;-75
2023/06/23 03:24:01;;;;;;;72.72;32.97;;;;;;;15.07;100.00;102294.66;6092643;19;20042;-73
2023/06/23 03:26:09;;;;;;;66.45;32.75;;;;;;;15.04;100.00;102290.34;6109817;19;20010;-75
2023/06/23 03:28:25;;;;;;;72.03;32.33;;;;;;;15.05;100.00;102301.78;6112734;19;20010;-75
2023/06/23 03:30:39;;;;;;;66.85;32.17;;;;;;;14.99;100.00;102294.09;6108679;19;20018;-75
2023/06/23 03:32:49;;;;;;;71.90;33.65;;;;;;;14.91;100.00;102302.28;6112090;19;20482;-71
2023/06/23 03:35:07;;;;;;;70.57;31.92;;;;;;;14.87;100.00;102303.31;6110732;19;20032;-71
2023/06/23 03:37:17;;;;;;;62.97;30.58;;;;;;;14.85;100.00;102298.09;6111851;19;20050;-71
2023/06/23 03:39:25;;;;;;;61.88;30.00;;;;;;;14.84;100.00;102296.34;6110920;19;20037;-71
2023/06/23 03:41:35;;;;;;;70.50;30.92;;;;;;;14.84;100.00;102304.28;6086793;19;20487;-72
2023/06/23 03:43:47;;;;;;;58.03;29.52;;;;;;;14.85;100.00;102308.66;6109229;19;20593;-72
2023/06/23 03:45:57;;;;;;;69.97;32.28;;;;;;;14.95;100.00;102313.63;6112612;19;20013;-71
2023/06/23 03:48:09;;;;;;;66.30;30.80;;;;;;;14.92;100.00;102304.88;6110996;19;20070;-70
2023/06/23 03:50:18;;;;;;;65.60;32.00;;;;;;;14.93;100.00;102311.91;6109918;19;20470;-73
2023/06/23 03:52:28;;;;;;;66.10;31.10;;;;;;;14.91;100.00;102318.16;6107349;19;20022;-71
2023/06/23 03:54:35;;;;;;;68.63;32.78;;;;;;;14.92;100.00;102320.75;6109228;19;20110;-71
2023/06/23 03:56:42;;;;;;;68.45;29.77;;;;;;;14.90;100.00;102316.44;6111678;19;20014;-71
2023/06/23 03:58:51;;;;;;;67.80;30.33;;;;;;;14.93;100.00;102322.50;6090207;19;20074;-71
2023/06/23 04:00:58;;;;;;;70.63;31.75;;;;;;;14.97;100.00;102332.97;6110285;19;20455;-71
2023/06/23 04:03:08;;;;;;;73.13;32.33;;;;;;;15.07;100.00;102339.66;6111036;19;20033;-71
2023/06/23 04:05:15;;;;;;;74.32;34.97;;;;;;;15.16;100.00;102344.63;6109723;19;20555;-71
2023/06/23 04:07:22;;;;;;;71.90;33.92;;;;;;;15.37;100.00;102349.16;6109695;19;20389;-72
2023/06/23 04:09:33;;;;;;;79.05;35.75;;;;;;;15.51;100.00;102339.84;6108300;19;20011;-71
2023/06/23 04:11:39;;;;;;;76.45;37.70;;;;;;;15.63;100.00;102349.13;6107298;19;20043;-71
2023/06/23 04:13:45;;;;;;;87.38;39.58;;;;;;;15.70;100.00;102345.34;6110704;19;20475;-71
2023/06/23 04:15:52;;;;;;;87.70;39.28;;;;;;;15.74;100.00;102347.81;6109138;19;20571;-75
2023/06/23 04:17:59;;;;;;;85.13;40.17;;;;;;;15.84;100.00;102347.47;6109180;19;20499;-73
2023/06/23 04:20:06;;;;;;;82.80;37.90;;;;;;;15.91;100.00;102351.63;6110481;19;20014;-75
2023/06/23 04:22:14;;;;;;;84.72;39.55;;;;;;;15.95;100.00;102343.47;6112450;19;20014;-73
2023/06/23 04:24:21;;;;;;;84.32;36.80;;;;;;;16.01;100.00;102345.03;6108455;19;20023;-73
2023/06/23 04:26:29;;;;;;;92.63;39.03;;;;;;;16.06;100.00;102334.22;6108678;19;20475;-74
2023/06/23 04:28:36;;;;;;;84.93;35.65;;;;;;;16.13;100.00;102343.69;6108648;19;20019;-73
2023/06/23 04:30:43;;;;;;;86.68;35.40;;;;;;;16.16;100.00;102344.41;6111349;19;20059;-74
2023/06/23 04:32:48;;;;;;;78.65;36.13;;;;;;;16.22;100.00;102338.88;6091394;19;20025;-75
2023/06/23 04:34:54;;;;;;;88.80;38.58;;;;;;;16.30;100.00;102357.13;6111649;19;20014;-74
2023/06/23 04:37:10;;;;;;;86.05;38.15;;;;;;;16.33;100.00;102348.19;6109266;19;20082;-74
2023/06/23 04:39:21;;;;;;;89.72;37.03;;;;;;;16.39;100.00;102353.25;6111976;19;20498;-73
2023/06/23 04:41:32;;;;;;;82.10;37.83;;;;;;;16.47;100.00;102343.16;6110009;19;20465;-73
2023/06/23 04:43:41;;;;;;;89.05;38.35;;;;;;;16.46;100.00;102346.75;6110672;19;20021;-72
2023/06/23 04:45:53;;;;;;;88.85;39.20;;;;;;;16.48;100.00;102344.03;6111237;19;20087;-71
2023/06/23 04:48:03;;;;;;;87.78;40.10;;;;;;;16.57;100.00;102339.22;6092452;19;20050;-70
2023/06/23 04:50:15;;;;;;;85.40;35.95;;;;;;;16.70;100.00;102346.66;6108518;19;20038;-71
2023/06/23 04:52:23;;;;;;;87.07;39.25;;;;;;;16.77;100.00;102350.78;6109323;19;20410;-72
2023/06/23 04:54:31;;;;;;;81.57;36.95;;;;;;;16.87;100.00;102350.34;6110016;19;20078;-70
2023/06/23 04:56:41;;;;;;;75.10;33.92;;;;;;;17.02;100.00;102348.81;6109563;19;20038;-72
2023/06/23 04:58:52;;;;;;;69.25;32.25;;;;;;;17.15;100.00;102346.50;6108567;19;20102;-72
2023/06/23 05:00:58;;;;;;;69.13;34.25;;;;;;;17.08;99.83;102351.22;6087262;19;20034;-71
2023/06/23 05:03:05;;;;;;;80.72;35.08;;;;;;;17.05;100.00;102346.03;6109780;19;20376;-71
2023/06/23 05:05:14;;;;;;;70.07;32.90;;;;;;;17.12;99.76;102346.66;6113631;19;20081;-69
2023/06/23 05:07:20;;;;;;;68.28;33.95;;;;;;;17.23;98.84;102343.50;6095234;19;20018;-71
2023/06/23 05:09:26;;;;;;;65.40;32.03;;;;;;;17.44;98.36;102353.16;6116781;19;19999;-70
2023/06/23 05:11:33;;;;;;;74.18;33.20;;;;;;;17.44;97.93;102362.94;6110508;19;20140;-72
2023/06/23 05:13:44;;;;;;;71.55;33.92;;;;;;;17.66;97.25;102368.13;6116113;19;20027;-71
2023/06/23 05:15:51;;;;;;;63.45;31.80;;;;;;;17.80;96.07;102368.41;6110490;19;20018;-72
2023/06/23 05:17:59;;;;;;;56.30;27.98;;;;;;;17.69;95.66;102374.19;6112240;19;20011;-73
2023/06/23 05:20:08;;;;;;;56.85;27.25;;;;;;;17.81;94.81;102375.44;6113381;19;20003;-71
2023/06/23 05:22:17;;;;;;;56.03;28.63;;;;;;;17.63;95.02;102374.44;6112476;19;20010;-71
2023/06/23 05:24:25;;;;;;;48.03;26.42;;;;;;;17.65;94.74;102377.91;6114706;19;20020;-71
2023/06/23 05:26:33;;;;;;;50.42;24.88;;;;;;;17.79;94.02;102390.59;6113743;19;20019;-72
2023/06/23 05:28:43;;;;;;;45.92;23.38;;;;;;;18.06;92.47;102392.91;6115929;19;20364;-71
2023/06/23 05:30:49;;;;;;;47.28;24.60;;;;;;;18.34;91.04;102390.66;6114007;19;20022;-72
2023/06/23 05:32:56;;;;;;;49.95;24.20;;;;;;;18.26;90.86;102391.97;6114572;19;20018;-73
2023/06/23 05:35:06;;;;;;;49.67;25.35;;;;;;;18.15;91.17;102397.81;6094459;19;20476;-71
2023/06/23 05:37:13;;;;;;;52.05;25.48;;;;;;;18.36;90.86;102391.44;6111549;19;20022;-71
2023/06/23 05:39:21;;;;;;;46.03;22.15;;;;;;;18.65;90.12;102392.66;6115420;19;20031;-74
2023/06/23 05:41:26;;;;;;;41.45;22.08;;;;;;;18.62;89.86;102402.63;6115370;19;20021;-73
2023/06/23 05:43:32;;;;;;;39.78;19.67;;;;;;;18.67;88.62;102397.94;6110854;19;20027;-74
2023/06/23 05:45:40;;;;;;;36.80;17.42;;;;;;;18.78;87.92;102398.28;6113964;19;20031;-75
2023/06/23 05:48:04;;;;;;;35.45;16.58;;;;;;;18.58;88.68;102385.06;6093939;19;20033;-74
2023/06/23 05:50:18;;;;;;;31.58;18.10;;;;;;;18.59;88.85;102386.81;6093846;19;20078;-72
2023/06/23 05:52:25;;;;;;;38.55;17.90;;;;;;;18.79;87.61;102388.47;6113841;19;20011;-71
2023/06/23 05:54:33;;;;;;;35.88;18.23;;;;;;;18.91;86.52;102392.34;6112984;19;20487;-71
2023/06/23 05:56:44;;;;;;;36.85;18.58;;;;;;;19.15;85.89;102396.41;6094117;19;20044;-71
2023/06/23 05:58:54;;;;;;;34.45;17.33;;;;;;;19.19;85.24;102405.94;6114263;19;20493;-71
2023/06/23 06:01:12;;;;;;;33.78;17.10;;;;;;;19.42;84.53;102407.41;6114963;19;20052;-72
2023/06/23 06:03:23;;;;;;;38.15;16.60;;;;;;;19.50;84.06;102415.00;6111540;19;20022;-72
2023/06/23 06:05:30;;;;;;;29.35;14.52;;;;;;;19.14;82.58;102416.00;6103114;19;20352;-70
2023/06/23 06:07:37;;;;;;;24.73;12.40;;;;;;;19.12;83.90;102417.88;6113534;19;20031;-70
2023/06/23 06:09:43;;;;;;;24.15;13.07;;;;;;;19.04;83.59;102425.41;6116327;19;20017;-71
2023/06/23 06:11:50;;;;;;;28.60;13.45;;;;;;;18.91;84.64;102414.50;6114560;19;20043;-73
2023/06/23 06:13:56;;;;;;;24.55;12.45;;;;;;;19.53;82.52;102420.16;6113874;19;20015;-74
2023/06/23 06:16:10;;;;;;;25.73;12.85;;;;;;;19.43;82.06;102421.59;6111882;19;20084;-74
2023/06/23 06:18:18;;;;;;;22.13;12.27;;;;;;;20.03;81.46;102421.06;6114503;19;20035;-73
2023/06/23 06:20:24;;;;;;;21.10;12.05;;;;;;;20.43;80.02;102425.03;6093010;19;20074;-74
2023/06/23 06:22:32;;;;;;;21.17;10.18;;;;;;;20.31;77.67;102428.41;6112336;19;20491;-75
2023/06/23 06:24:39;;;;;;;19.73;10.30;;;;;;;20.18;79.39;102429.09;6112247;19;20018;-75
2023/06/23 06:26:49;;;;;;;19.48;11.05;;;;;;;20.34;79.42;102433.56;6114843;19;20027;-74
2023/06/23 06:28:58;;;;;;;17.10;9.52;;;;;;;20.36;78.56;102429.88;6111071;19;20431;-73
2023/06/23 06:31:09;;;;;;;17.45;10.07;;;;;;;20.37;77.53;102422.72;6114181;19;20031;-73
2023/06/23 06:33:16;;;;;;;18.17;10.27;;;;;;;21.05;75.13;102422.38;6110360;19;20025;-75
2023/06/23 06:35:25;;;;;;;15.75;8.93;;;;;;;21.69;73.72;102422.94;6114481;19;20082;-74
2023/06/23 06:37:31;;;;;;;13.20;7.88;;;;;;;22.03;72.61;102421.66;6069072;19;20027;-73
2023/06/23 06:39:38;;;;;;;14.25;8.45;;;;;;;21.97;71.24;102423.91;6094059;19;20472;-75
2023/06/23 06:41:45;;;;;;;17.23;10.00;;;;;;;21.90;72.07;102434.97;6093975;19;20347;-74
2023/06/23 06:43:50;;;;;;;14.02;8.80;;;;;;;22.25;70.76;102433.72;6112061;19;20090;-75
2023/06/23 06:45:56;;;;;;;14.38;8.10;;;;;;;21.92;70.16;102445.59;6113505;19;20011;-74
2023/06/23 06:48:05;;;;;;;14.65;8.18;;;;;;;22.29;70.36;102441.44;6111034;19;20050;-70
2023/06/23 06:50:13;;;;;;;14.75;8.40;;;;;;;22.72;68.19;102441.34;6111606;19;20018;-70
2023/06/23 06:52:20;;;;;;;14.45;8.43;;;;;;;23.09;67.13;102441.56;6090571;19;20070;-70
2023/06/23 06:54:31;;;;;;;15.65;7.93;;;;;;;22.91;67.41;102446.31;6111422;19;20404;-74
2023/06/23 06:56:37;;;;;;;15.63;8.02;;;;;;;23.10;65.81;102448.63;6111250;19;20014;-75
2023/06/23 06:58:43;;;;;;;14.63;7.88;;;;;;;23.05;65.79;102445.41;6110597;19;20035;-74
2023/06/23 07:00:48;;;;;;;13.23;7.97;;;;;;;22.65;65.26;102444.53;6113369;19;20497;-71
2023/06/23 07:02:53;;;;;;;12.57;7.82;;;;;;;22.31;66.08;102455.59;6112220;19;20010;-72
2023/06/23 07:05:02;;;;;;;16.77;8.63;;;;;;;21.63;69.27;102461.66;6113841;19;20027;-73
2023/06/23 07:07:07;;;;;;;14.40;8.45;;;;;;;22.53;66.65;102456.88;6113091;19;20480;-73
2023/06/23 07:09:12;;;;;;;15.20;8.88;;;;;;;22.24;65.99;102456.97;6110542;19;20407;-73
2023/06/23 07:11:18;;;;;;;14.48;7.85;;;;;;;22.72;65.71;102461.88;6109869;19;20014;-73
2023/06/23 07:13:23;;;;;;;14.57;8.20;;;;;;;23.16;65.97;102464.28;6113878;19;20023;-73
2023/06/23 07:15:28;;;;;;;16.33;8.65;;;;;;;23.21;63.14;102464.00;6108183;19;20023;-72
2023/06/23 07:17:33;;;;;;;15.85;8.82;;;;;;;22.93;63.22;102465.84;6111855;19;20014;-74
2023/06/23 07:19:40;;;;;;;12.77;7.40;;;;;;;23.32;63.98;102464.09;6092098;19;20543;-75
2023/06/23 07:21:48;;;;;;;13.82;8.50;;;;;;;22.77;65.05;102465.97;6090075;19;20013;-75
2023/06/23 07:23:53;;;;;;;14.82;8.13;;;;;;;24.14;62.57;102453.03;6111760;19;20030;-75
2023/06/23 07:25:58;;;;;;;12.02;7.05;;;;;;;24.36;61.03;102460.41;6111776;19;20470;-74
2023/06/23 07:28:03;;;;;;;11.88;7.43;;;;;;;23.17;62.31;102468.72;6110480;19;20082;-74
2023/06/23 07:30:09;;;;;;;12.80;7.35;;;;;;;22.86;61.88;102485.13;6090136;19;20440;-74
2023/06/23 07:32:15;;;;;;;12.50;7.32;;;;;;;23.09;62.66;102476.44;6110519;19;20150;-75
2023/06/23 07:34:21;;;;;;;14.18;7.20;;;;;;;23.73;61.23;102475.66;6111448;19;20038;-74
2023/06/23 07:36:29;;;;;;;13.60;7.38;;;;;;;23.32;60.02;102482.88;6110285;19;20089;-75
2023/06/23 07:38:37;;;;;;;11.32;6.70;;;;;;;23.72;59.07;102487.34;6108420;19;20444;-75
2023/06/23 07:40:42;;;;;;;12.85;7.10;;;;;;;23.82;59.40;102483.91;6112384;19;20014;-75
2023/06/23 07:42:47;;;;;;;11.38;6.75;;;;;;;24.21;58.94;102481.16;6091653;19;20247;-76
2023/06/23 07:44:52;;;;;;;13.88;7.32;;;;;;;23.41;60.81;102476.06;6109635;19;20479;-74
2023/06/23 07:46:57;;;;;;;11.52;6.88;;;;;;;23.77;59.28;102479.81;6112236;19;20011;-74
2023/06/23 07:49:05;;;;;;;15.43;6.72;;;;;;;23.87;59.43;102480.91;6092097;19;20331;-73
2023/06/23 07:51:10;;;;;;;11.85;6.03;;;;;;;23.97;58.16;102479.28;6091262;19;20027;-74
2023/06/23 07:53:15;;;;;;;12.43;6.53;;;;;;;23.90;58.42;102478.00;6110054;19;20006;-76
2023/06/23 07:55:23;;;;;;;11.18;6.90;;;;;;;24.07;57.44;102484.84;6091324;19;20514;-74
2023/06/23 07:57:29;;;;;;;14.75;7.55;;;;;;;23.23;59.37;102487.06;6109937;19;20010;-73
2023/06/23 07:59:33;;;;;;;13.88;7.18;;;;;;;23.80;60.25;102479.59;6111267;19;20011;-74
2023/06/23 08:01:38;;;;;;;10.57;6.32;;;;;;;23.99;57.94;102481.88;6112340;19;20027;-69
2023/06/23 08:03:47;;;;;;;10.98;6.53;;;;;;;24.08;56.51;102484.72;6109716;19;20046;-69
2023/06/23 08:05:52;;;;;;;10.68;6.53;;;;;;;24.30;56.93;102476.00;6113279;19;20018;-71
2023/06/23 08:08:00;;;;;;;10.82;5.97;;;;;;;24.10;57.51;102480.13;6110342;19;20014;-71
2023/06/23 08:10:05;;;;;;;11.85;7.03;;;;;;;24.29;53.78;102485.00;6107288;19;20035;-70
2023/06/23 08:12:13;;;;;;;10.88;6.00;;;;;;;24.71;53.17;102487.38;6107589;19;20470;-70
2023/06/23 08:14:18;;;;;;;9.13;5.47;;;;;;;25.16;53.14;102488.44;6111612;19;20022;-71
2023/06/23 08:16:23;;;;;;;11.40;5.47;;;;;;;24.60;54.16;102498.94;6110091;19;20011;-69
2023/06/23 08:18:28;;;;;;;10.40;5.75;;;;;;;24.82;54.40;102490.13;6113017;19;20006;-70
2023/06/23 08:20:33;;;;;;;13.85;7.28;;;;;;;24.43;55.54;102496.56;6091456;19;20062;-70
2023/06/23 08:22:40;;;;;;;10.95;6.28;;;;;;;23.67;57.29;102493.88;6090533;19;20010;-69
2023/06/23 08:24:46;;;;;;;11.38;6.60;;;;;;;24.15;55.73;102487.00;6111397;19;20029;-70
2023/06/23 08:26:51;;;;;;;10.70;6.18;;;;;;;24.98;55.68;102487.97;6107144;19;20035;-69
2023/06/23 08:28:58;;;;;;;10.93;6.85;;;;;;;24.65;54.77;102491.38;6108374;19;20368;-69
2023/06/23 08:31:03;;;;;;;13.52;8.43;;;;;;;24.02;58.45;102506.66;6110336;19;20431;-69
2023/06/23 08:33:09;;;;;;;16.90;8.77;;;;;;;24.78;57.62;102504.78;6109584;19;20011;-69
2023/06/23 08:35:15;;;;;;;16.05;8.82;;;;;;;24.83;58.42;102499.03;6110647;19;20356;-69
2023/06/23 08:37:21;;;;;;;14.25;7.72;;;;;;;24.96;56.81;102506.09;6110607;19;20011;-70
2023/06/23 08:39:28;;;;;;;13.65;7.32;;;;;;;25.25;55.32;102507.53;6115162;19;20014;-69
2023/06/23 08:41:35;;;;;;;15.75;9.30;;;;;;;24.12;57.18;102508.69;6115800;19;20043;-69
2023/06/23 08:43:45;;;;;;;13.57;7.47;;;;;;;24.20;56.18;102511.69;6115467;19;20046;-69
2023/06/23 08:45:59;;;;;;;13.15;7.00;;;;;;;24.19;56.70;102510.81;6117145;19;20542;-69
2023/06/23 08:48:05;;;;;;;12.35;6.93;;;;;;;24.41;56.13;102515.53;6115657;19;20046;-69
2023/06/23 08:50:11;;;;;;;11.63;5.68;;;;;;;24.12;54.70;102512.25;6115869;19;20010;-69
2023/06/23 08:52:17;;;;;;;10.80;5.78;;;;;;;24.56;52.85;102505.47;6114409;19;20014;-69
2023/06/23 08:54:23;;;;;;;11.68;6.90;;;;;;;24.87;53.71;102509.44;6096547;19;20010;-69
2023/06/23 08:56:28;;;;;;;11.02;6.53;;;;;;;24.47;51.83;102508.88;6117740;19;20494;-74
2023/06/23 08:58:33;;;;;;;8.20;5.03;;;;;;;23.87;50.58;102526.53;6118688;19;20466;-69
2023/06/23 09:00:40;;;;;;;11.95;6.10;;;;;;;24.86;49.87;102526.56;6115117;19;20014;-74
2023/06/23 09:02:48;;;;;;;9.57;5.43;;;;;;;24.34;50.85;102526.81;6113067;19;20023;-71
2023/06/23 09:04:55;;;;;;;9.68;5.43;;;;;;;25.12;51.02;102524.63;6115047;19;20504;-71
2023/06/23 09:07:02;;;;;;;7.90;4.80;;;;;;;25.07;47.61;102524.09;6114426;19;20021;-72
2023/06/23 09:09:07;;;;;;;8.38;5.13;;;;;;;25.91;48.55;102527.56;6118549;19;20022;-72
2023/06/23 09:11:12;;;;;;;10.48;5.72;;;;;;;26.62;47.97;102513.78;6117509;19;20406;-74
2023/06/23 09:13:23;;;;;;;8.82;5.32;;;;;;;25.65;45.22;102518.81;6114722;19;20018;-72
2023/06/23 09:15:29;;;;;;;11.23;6.05;;;;;;;25.77;46.60;102522.34;6112270;19;20511;-72
2023/06/23 09:17:35;;;;;;;8.15;4.38;;;;;;;26.36;45.22;102524.00;6112048;19;20015;-73
2023/06/23 09:19:49;;;;;;;10.45;5.90;;;;;;;26.54;45.88;102527.03;6114864;19;20451;-72
2023/06/23 09:21:54;;;;;;;10.25;5.50;;;;;;;26.68;45.85;102526.78;6117319;19;20036;-76
2023/06/23 09:24:05;;;;;;;9.48;5.30;;;;;;;26.08;46.04;102534.28;6117296;19;20349;-75
2023/06/23 09:26:10;;;;;;;12.35;5.38;;;;;;;26.18;46.74;102532.56;6116213;19;20464;-77
2023/06/23 09:28:27;;;;;;;9.10;5.22;;;;;;;26.68;44.34;102530.31;6096951;19;20046;-76
2023/06/23 09:30:35;;;;;;;10.18;5.00;;;;;;;27.19;44.12;102530.66;6113331;19;20007;-76
2023/06/23 09:32:40;;;;;;;9.93;5.35;;;;;;;26.46;45.25;102535.72;6112363;19;20034;-77
2023/06/23 09:35:00;;;;;;;9.48;5.28;;;;;;;27.04;44.22;102532.75;6115294;19;20015;-75
2023/06/23 09:37:09;;;;;;;11.75;6.03;;;;;;;27.33;42.19;102531.22;6114953;19;20038;-76
2023/06/23 09:39:16;;;;;;;9.82;5.28;;;;;;;27.00;43.16;102529.47;6116712;19;20014;-76
2023/06/23 09:41:26;;;;;;;10.07;5.20;;;;;;;26.65;44.31;102530.56;6111887;19;20028;-76
2023/06/23 09:43:56;;;;;;;11.18;5.50;;;;;;;26.42;46.40;102535.13;6113987;19;20014;-75